Yellowstone Natl Park, WY

7:38 AM MDT on June 18, 2018 (GMT -0600)
West Yellowstone | | Change Station
Active Advisory: Areal Flood Watch Active Notice: Areal Flood Watch

Elev 6650 ft 44.69 °N, 111.12 °W | Updated 3 minutes ago

Rain
Rain
46 °F
Feels Like 44 °F
N
6
Wind Variable Wind from SSE

Today
High -- | Low -- °F
--% Chance of Precip.
Yesterday
High -- | Low -- °F
Precip. -- in
Pressure 30.04 in
Visibility 10.0 miles
Clouds Few 3600 ft
Mostly Cloudy 5000 ft
Overcast 5500 ft
Windchill 44 °F
Dew Point 46 °F
Humidity 100%
Rainfall 0.16 in
Snow Depth Not available.
5:37 AM 9:10 PM
Waxing Crescent, 30% visible
METAR KWYS 181335Z AUTO 15005KT 10SM FEW036 BKN050 OVC055 08/08 A3004 RMK AO2
Pressure 30.04 in
Visibility 10.0 miles
Clouds Few 3600 ft
Mostly Cloudy 5000 ft
Overcast 5500 ft
Windchill 44 °F
Dew Point 46 °F
Humidity 100%
Rainfall 0.16 in
Snow Depth Not available.
5:37 AM 9:10 PM
Waxing Crescent, 30% visible
METAR KWYS 181335Z AUTO 15005KT 10SM FEW036 BKN050 OVC055 08/08 A3004 RMK AO2

Get Your Daily Forecast Email!

Thanks for signing up!

Be on the lookout for a verification email in your inbox.

You'll start receiving severe weather alerts in your inbox..

×

10-Day Weather Forecast

Almanac

Astronomy

Jun. 18, 2018 Rise Set
Actual Time
Civil Twilight
Nautical Twilight
Astronomical Twilight
Moon
Length of Visible Light
Length of Day
Tomorrow will be .
, % of the Moon is Illuminated

Today's Extremes

State Highs State Lows

Community

WunderPhotos

Category 6

Welcome to Category 6. This is the collective home for Weather Underground's featured writeups by Dr. Jeff Masters (right), Bob Henson (left), Chris Burt, and other regular contributors.

Nearby

Air Quality

  Air Quality AQ Index Pollutant
Not available.

Snow Depth

Station Depth Elevation

Earthquake Activity

City Distance Mag. Time & Date
Minimum magnitude displayed is 2.5.

Coastal Water Temperatures

Place Temperature

Stations

Nearby Weather Stations

Station Location Temp. Windchill Dew Point Humidity Wind Precip. Elev Updated Type
                   

Watches & Warnings

Areal Flood Watch
Issued: 1:50 AM MDT Jun. 18, 2018 – National Weather Service

... Flood Watch remains in effect through this evening...

The Flood Watch continues for

* a portion of northwest Wyoming, including the following areas,
Absaroka Mountains, Cody foothills, Jackson Hole, Teton and
Gros ventre mountains, and Yellowstone National Park.

* Through this evening

* periods of moderate to heavy rain will occur today into this
evening, before subsiding late Monday night.

* Rainfall totals of 1 inch to 1.5 inches are forecast with
locally higher amounts possible.

Precautionary/preparedness actions...

A Flood Watch means there is a potential for flooding based on
current forecasts.

You should monitor later forecasts and be alert for possible
flood warnings. Those living in areas prone to flooding should be
prepared to take action should flooding develop.